Terminal Aerodrome Forecast
Issued by NWS

Home | Current Version | Previous Version | Text Only | Print | Product List | Glossary On
Versions: 1 2 3 4 5 6 7 8 9 10 11 12 13 14 15 16 17 18 19 20 21 22 23 24 25 26
000
FTUS42 KFFC 011120
TAFFTY
TAF
KFTY 011120Z 0112/0212 VRB03KT P6SM FEW025 SCT050
     FM011500 VRB03KT P6SM SCT030 SCT250
     FM011800 VRB04KT P6SM SCT050 SCT250
     FM020000 00000KT P6SM SCT250=

USA.gov is the U.S. government's official web portal to all federal, state and local government web resources and services.